createdAt,value
2023-01-09T00:00:41.348Z,29.42
2023-01-09T00:03:07.828Z,35.78
2023-01-09T00:05:34.235Z,32.72
2023-01-09T00:08:00.750Z,31.63
2023-01-09T00:10:27.210Z,28.92
2023-01-09T00:12:53.632Z,34.13
2023-01-09T00:15:20.055Z,29.42
2023-01-09T00:17:48.090Z,32.83
2023-01-09T00:20:14.542Z,34.60
2023-01-09T00:22:40.948Z,32.97
2023-01-09T00:25:07.547Z,33.90
2023-01-09T00:27:34.773Z,30.48
2023-01-09T00:30:01.446Z,35.70
2023-01-09T00:32:28.526Z,32.95
2023-01-09T00:34:55.298Z,35.38
2023-01-09T00:37:22.057Z,29.85
2023-01-09T00:39:48.447Z,30.17
2023-01-09T00:42:16.696Z,32.67
2023-01-09T00:44:47.855Z,31.13
2023-01-09T00:47:16.671Z,34.67
2023-01-09T00:49:43.635Z,31.27
2023-01-09T00:52:11.928Z,32.42
2023-01-09T00:54:39.314Z,29.73
2023-01-09T00:57:06.085Z,38.78
2023-01-09T00:59:32.779Z,33.85
2023-01-09T01:01:59.516Z,30.60
2023-01-09T01:04:44.694Z,34.88
2023-01-09T01:07:29.482Z,31.33
2023-01-09T01:09:55.888Z,35.30
2023-01-09T01:12:22.320Z,30.40
2023-01-09T01:14:48.736Z,29.92
2023-01-09T01:17:15.310Z,28.20
2023-01-09T01:19:41.729Z,36.55
2023-01-09T01:22:08.142Z,30.63
2023-01-09T01:24:34.662Z,32.33
2023-01-09T01:27:01.163Z,30.25
2023-01-09T01:29:27.607Z,29.60
2023-01-09T01:31:54.088Z,25.98
2023-01-09T01:34:20.609Z,25.42
2023-01-09T01:36:47.089Z,31.10
2023-01-09T01:39:13.492Z,33.55
2023-01-09T01:41:40.007Z,31.23
2023-01-09T01:44:26.381Z,32.72
2023-01-09T01:46:53.174Z,27.65
2023-01-09T01:49:20.566Z,28.60
2023-01-09T01:51:48.878Z,30.67
2023-01-09T01:54:17.862Z,33.63
2023-01-09T01:56:46.600Z,31.42
2023-01-09T01:59:18.878Z,34.70
2023-01-09T02:01:47.475Z,30.58
2023-01-09T02:04:14.121Z,32.78
2023-01-09T02:06:41.858Z,34.42
2023-01-09T02:09:08.702Z,35.92
2023-01-09T02:11:35.133Z,33.00
2023-01-09T02:14:02.006Z,32.25
2023-01-09T02:16:52.012Z,34.40
2023-01-09T02:19:21.219Z,32.92
2023-01-09T02:22:12.713Z,34.10
2023-01-09T02:24:58.081Z,34.08
2023-01-09T02:27:43.100Z,28.23
2023-01-09T02:30:27.983Z,35.28
2023-01-09T02:32:57.523Z,27.77
2023-01-09T02:35:24.166Z,31.45
2023-01-09T02:37:53.476Z,33.33
2023-01-09T02:40:35.296Z,32.58
2023-01-09T02:43:02.430Z,29.45
2023-01-09T02:45:28.925Z,30.38
2023-01-09T02:47:55.419Z,26.65
2023-01-09T02:50:32.357Z,26.20
2023-01-09T02:53:17.432Z,30.38
2023-01-09T02:55:43.821Z,29.63
2023-01-09T02:58:16.604Z,29.38
2023-01-09T03:00:46.152Z,32.97
2023-01-09T03:03:12.704Z,35.75
2023-01-09T03:05:39.304Z,31.73
2023-01-09T03:08:10.343Z,35.10
2023-01-09T03:10:36.790Z,28.70
2023-01-09T03:13:03.770Z,32.72
2023-01-09T03:15:32.758Z,32.28
2023-01-09T03:18:00.086Z,30.42
2023-01-09T03:20:29.678Z,29.90
2023-01-09T03:22:56.935Z,36.00
2023-01-09T03:25:24.081Z,24.95
2023-01-09T03:27:56.489Z,31.60
2023-01-09T03:30:23.234Z,28.55
2023-01-09T03:32:49.679Z,36.40
2023-01-09T03:35:16.116Z,31.33
2023-01-09T03:37:42.600Z,30.45
2023-01-09T03:40:09.527Z,34.83
2023-01-09T03:42:36.028Z,33.50
2023-01-09T03:45:02.486Z,30.33
2023-01-09T03:47:28.908Z,31.77
2023-01-09T03:49:55.315Z,28.08
2023-01-09T03:52:21.829Z,29.17
2023-01-09T03:54:48.319Z,32.60
2023-01-09T03:57:14.743Z,27.85
2023-01-09T03:59:41.216Z,32.25
2023-01-09T04:02:07.819Z,32.60
2023-01-09T04:04:34.424Z,32.00
2023-01-09T04:07:00.851Z,40.28
2023-01-09T04:09:27.274Z,27.48
2023-01-09T04:11:53.710Z,33.03
2023-01-09T04:14:20.785Z,32.00
2023-01-09T04:16:47.332Z,24.35
2023-01-09T04:19:13.887Z,29.38
2023-01-09T04:21:40.311Z,28.88
2023-01-09T04:24:06.951Z,27.42
2023-01-09T04:26:33.362Z,31.42
2023-01-09T04:29:00.552Z,30.95
2023-01-09T04:31:27.011Z,28.75
2023-01-09T04:33:53.424Z,25.23
2023-01-09T04:36:19.827Z,29.30
2023-01-09T04:38:46.302Z,28.27
2023-01-09T04:41:32.675Z,33.35
2023-01-09T04:43:59.426Z,26.83
2023-01-09T04:46:25.831Z,26.10
2023-01-09T04:48:52.240Z,26.10
2023-01-09T04:51:18.635Z,28.17
2023-01-09T04:53:45.082Z,24.83
2023-01-09T04:56:11.464Z,21.65
2023-01-09T04:58:37.939Z,24.27
2023-01-09T05:01:04.514Z,27.27
2023-01-09T05:03:31.012Z,32.05
2023-01-09T05:05:57.440Z,25.13
2023-01-09T05:08:23.857Z,27.00
2023-01-09T05:10:50.275Z,26.05
2023-01-09T05:13:16.677Z,30.08
2023-01-09T05:15:43.135Z,31.73
2023-01-09T05:18:09.610Z,23.63
2023-01-09T05:20:37.289Z,24.58
2023-01-09T05:23:03.798Z,23.35
2023-01-09T05:25:30.256Z,30.27
2023-01-09T05:27:56.679Z,22.83
2023-01-09T05:30:23.213Z,22.05
2023-01-09T05:32:49.713Z,21.05
2023-01-09T05:35:16.155Z,23.23
2023-01-09T05:37:42.610Z,28.45
2023-01-09T05:40:09.401Z,21.40
2023-01-09T05:42:35.880Z,22.85
2023-01-09T05:45:02.369Z,26.35
2023-01-09T05:47:28.816Z,31.42
2023-01-09T05:49:56.414Z,28.35
2023-01-09T05:52:23.746Z,26.20
2023-01-09T05:54:50.190Z,22.80
2023-01-09T05:57:16.644Z,26.33
2023-01-09T05:59:43.100Z,23.83
2023-01-09T06:02:09.608Z,35.50
2023-01-09T06:04:36.095Z,30.75
2023-01-09T06:07:02.659Z,29.55
2023-01-09T06:09:29.235Z,43.00
2023-01-09T06:11:55.896Z,24.42
2023-01-09T06:14:22.719Z,25.90
2023-01-09T06:16:49.161Z,23.08
2023-01-09T06:19:15.622Z,34.17
2023-01-09T06:21:42.103Z,26.20
2023-01-09T06:24:08.639Z,27.40
2023-01-09T06:26:35.113Z,30.38
2023-01-09T06:29:01.732Z,23.35
2023-01-09T06:31:28.241Z,23.17
2023-01-09T06:33:54.804Z,22.08
2023-01-09T06:36:22.597Z,26.73
2023-01-09T06:38:49.156Z,21.92
2023-01-09T06:41:15.590Z,23.40
2023-01-09T06:43:42.069Z,20.60
2023-01-09T06:46:08.586Z,26.45
2023-01-09T06:48:35.116Z,29.67
2023-01-09T06:51:01.740Z,25.83
2023-01-09T06:53:28.251Z,26.77
2023-01-09T06:55:54.696Z,26.20
2023-01-09T06:58:21.204Z,25.63
2023-01-09T07:00:49.528Z,26.67
2023-01-09T07:03:19.910Z,26.08
2023-01-09T07:05:47.161Z,21.45
2023-01-09T07:08:15.112Z,26.80
2023-01-09T07:10:42.064Z,17.10
2023-01-09T07:13:08.496Z,26.00
2023-01-09T07:15:35.042Z,22.85
2023-01-09T07:18:01.585Z,20.67
2023-01-09T07:20:28.054Z,25.83
2023-01-09T07:22:54.528Z,22.58
2023-01-09T07:25:21.313Z,26.98
2023-01-09T07:27:47.815Z,23.50
2023-01-09T07:30:15.002Z,23.80
2023-01-09T07:32:41.548Z,21.55
2023-01-09T07:35:08.897Z,24.63
2023-01-09T07:37:35.381Z,20.00
2023-01-09T07:40:02.106Z,21.35
2023-01-09T07:42:28.516Z,20.27
2023-01-09T07:44:54.948Z,26.67
2023-01-09T07:47:21.470Z,23.13
2023-01-09T07:49:47.911Z,24.45
2023-01-09T07:52:15.303Z,22.30
2023-01-09T07:54:41.711Z,24.85
2023-01-09T07:57:08.144Z,25.98
2023-01-09T07:59:34.585Z,22.38
2023-01-09T08:02:02.568Z,21.77
2023-01-09T08:04:29.120Z,21.08
2023-01-09T08:06:56.879Z,23.33
2023-01-09T08:09:23.370Z,20.98
2023-01-09T08:11:50.914Z,20.83
2023-01-09T08:14:17.415Z,20.75
2023-01-09T08:16:43.846Z,26.05
2023-01-09T08:19:12.436Z,24.48
2023-01-09T08:21:39.696Z,25.10
2023-01-09T08:24:06.251Z,22.30
2023-01-09T08:26:32.960Z,21.13
2023-01-09T08:28:59.420Z,19.40
2023-01-09T08:31:26.320Z,23.98
2023-01-09T08:33:52.786Z,30.00
2023-01-09T08:36:19.332Z,24.38
2023-01-09T08:38:49.270Z,24.30
2023-01-09T08:41:33.986Z,22.45
2023-01-09T08:44:26.595Z,22.58
2023-01-09T08:47:08.779Z,28.92
2023-01-09T08:49:36.560Z,21.05
2023-01-09T08:52:03.813Z,25.00
2023-01-09T08:54:31.399Z,27.80
2023-01-09T08:56:58.019Z,23.52
2023-01-09T08:59:24.898Z,22.55
2023-01-09T09:01:51.362Z,21.83
2023-01-09T09:04:18.399Z,22.20
2023-01-09T09:06:44.882Z,27.85
2023-01-09T09:09:11.940Z,25.80
2023-01-09T09:11:38.459Z,17.77
2023-01-09T09:14:25.736Z,34.10
2023-01-09T09:16:52.396Z,24.10
2023-01-09T09:19:19.054Z,23.75
2023-01-09T09:21:46.258Z,21.05
2023-01-09T09:24:13.352Z,21.23
2023-01-09T09:26:40.418Z,19.60
2023-01-09T09:29:06.928Z,25.98
2023-01-09T09:31:34.233Z,30.45
2023-01-09T09:34:00.887Z,27.70
2023-01-09T09:36:29.880Z,27.60
2023-01-09T09:38:56.390Z,25.80
2023-01-09T09:41:41.748Z,21.60
2023-01-09T09:44:53.462Z,21.40
2023-01-09T09:47:50.765Z,22.48
2023-01-09T09:50:26.202Z,22.98
2023-01-09T09:53:07.951Z,22.00
2023-01-09T09:55:36.311Z,25.60
2023-01-09T09:58:05.488Z,25.42
2023-01-09T10:00:32.077Z,24.73
2023-01-09T10:03:01.736Z,28.05
2023-01-09T10:05:34.186Z,24.70
2023-01-09T10:08:15.525Z,27.90
2023-01-09T10:10:52.137Z,23.98
2023-01-09T10:13:38.858Z,22.73
2023-01-09T10:16:24.330Z,27.63
2023-01-09T10:18:54.144Z,26.10
2023-01-09T10:21:41.604Z,22.60
2023-01-09T10:24:31.518Z,25.67
2023-01-09T10:26:58.294Z,33.10
2023-01-09T10:29:28.304Z,25.00
2023-01-09T10:32:02.234Z,24.65
2023-01-09T10:34:41.419Z,25.25
2023-01-09T10:37:10.684Z,29.67
2023-01-09T10:39:53.619Z,28.50
2023-01-09T10:42:25.875Z,27.83
2023-01-09T10:45:03.830Z,26.50
2023-01-09T10:47:32.280Z,26.50
2023-01-09T10:50:00.032Z,31.67
2023-01-09T10:52:33.204Z,28.17
2023-01-09T10:55:18.412Z,31.42
2023-01-09T10:57:46.170Z,40.33
2023-01-09T11:00:17.968Z,31.58
2023-01-09T11:05:20.954Z,29.92
2023-01-09T11:07:53.598Z,33.70
2023-01-09T11:10:22.956Z,41.55
2023-01-09T11:12:49.391Z,39.28
2023-01-09T11:15:16.398Z,41.85
2023-01-09T11:17:43.401Z,27.27
2023-01-09T11:20:24.199Z,26.38
2023-01-09T11:22:54.055Z,30.63
2023-01-09T11:25:21.680Z,26.80
2023-01-09T11:28:04.356Z,28.80
2023-01-09T11:30:33.318Z,30.90
2023-01-09T11:33:00.126Z,29.70
2023-01-09T11:35:34.919Z,31.65
2023-01-09T11:38:06.680Z,29.83
2023-01-09T11:40:46.673Z,37.17
2023-01-09T11:43:14.777Z,34.42
2023-01-09T11:45:56.272Z,30.75
2023-01-09T11:48:46.646Z,32.58
2023-01-09T11:51:20.631Z,30.70
2023-01-09T11:54:06.644Z,29.15
2023-01-09T11:56:33.395Z,30.50
2023-01-09T11:59:00.782Z,29.15
2023-01-09T12:01:27.155Z,32.47
2023-01-09T12:03:54.290Z,38.63
2023-01-09T12:06:20.678Z,34.97
2023-01-09T12:08:53.665Z,31.95
2023-01-09T12:11:25.675Z,32.58
2023-01-09T12:13:55.675Z,36.08
2023-01-09T12:16:22.185Z,30.75
2023-01-09T12:19:21.492Z,29.75
2023-01-09T12:21:56.034Z,27.98
2023-01-09T12:24:41.641Z,33.95
2023-01-09T12:27:18.731Z,36.03
2023-01-09T12:29:45.909Z,39.92
2023-01-09T12:32:12.324Z,36.70
2023-01-09T12:34:49.379Z,40.42
2023-01-09T12:37:36.029Z,38.00
2023-01-09T12:40:08.908Z,32.63
2023-01-09T12:42:52.245Z,36.45
2023-01-09T12:45:34.899Z,36.58
2023-01-09T12:48:28.962Z,38.92
2023-01-09T12:50:59.273Z,36.22
2023-01-09T12:53:34.795Z,36.75
2023-01-09T12:56:07.513Z,38.97
2023-01-09T12:58:39.414Z,37.40
2023-01-09T13:03:42.131Z,39.88
2023-01-09T13:06:13.182Z,47.75
2023-01-09T13:08:42.216Z,41.43
2023-01-09T13:11:46.234Z,27.92
2023-01-09T13:14:12.702Z,29.85
2023-01-09T13:16:48.786Z,40.00
2023-01-09T13:19:34.625Z,30.33
2023-01-09T13:22:04.593Z,34.40
2023-01-09T13:24:35.216Z,32.88
2023-01-09T13:27:03.360Z,31.25
2023-01-09T13:29:32.311Z,31.35
2023-01-09T13:32:01.714Z,28.95
2023-01-09T13:34:31.166Z,32.30
2023-01-09T13:36:57.926Z,27.23
2023-01-09T13:39:26.450Z,29.55
2023-01-09T13:42:14.176Z,34.45
2023-01-09T13:44:41.662Z,32.28
2023-01-09T13:47:17.221Z,31.95
2023-01-09T13:49:44.944Z,33.83
2023-01-09T13:52:29.823Z,33.00
2023-01-09T13:54:57.084Z,27.75
2023-01-09T13:57:29.474Z,27.35
2023-01-09T14:00:19.625Z,26.85
2023-01-09T14:02:46.914Z,31.23
2023-01-09T14:05:16.167Z,29.13
2023-01-09T14:07:44.532Z,29.73
2023-01-09T14:10:21.118Z,34.97
2023-01-09T14:12:47.864Z,28.60
2023-01-09T14:15:26.837Z,33.17
2023-01-09T14:18:04.393Z,44.55
2023-01-09T14:20:36.248Z,40.95
2023-01-09T14:25:52.249Z,92.03
2023-01-09T14:28:20.338Z,51.95
2023-01-09T14:31:06.342Z,37.75
2023-01-09T14:33:33.058Z,164.10
2023-01-09T14:35:59.625Z,67.32
2023-01-09T14:38:30.146Z,491.55
2023-01-09T14:41:16.816Z,272.20
2023-01-09T14:44:04.295Z,302.75
2023-01-09T14:46:33.845Z,397.95
2023-01-09T14:49:06.804Z,432.67
2023-01-09T14:51:36.650Z,453.55
2023-01-09T14:54:15.378Z,101.38
2023-01-09T14:56:46.576Z,40.67
2023-01-09T14:59:14.240Z,23.15
2023-01-09T15:01:43.323Z,30.60
2023-01-09T15:04:37.105Z,34.20
2023-01-09T15:07:04.016Z,33.97
2023-01-09T15:09:37.040Z,32.13
2023-01-09T15:12:06.127Z,79.20
2023-01-09T15:14:36.638Z,165.82
2023-01-09T15:17:04.049Z,516.83
2023-01-09T15:19:33.167Z,515.30
2023-01-09T15:22:04.328Z,146.82
2023-01-09T15:24:34.280Z,305.75
2023-01-09T15:27:10.223Z,183.63
2023-01-09T15:29:37.384Z,84.85
2023-01-09T15:32:05.671Z,70.78
2023-01-09T15:34:32.428Z,47.92
2023-01-09T15:37:00.533Z,46.47
2023-01-09T15:39:29.750Z,46.00
2023-01-09T15:42:17.183Z,36.40
2023-01-09T15:44:44.792Z,48.78
2023-01-09T15:47:15.195Z,46.58
2023-01-09T15:49:43.104Z,46.97
2023-01-09T15:52:12.008Z,52.75
2023-01-09T15:54:41.425Z,40.00
2023-01-09T15:57:27.916Z,38.08
2023-01-09T15:59:55.609Z,39.45
2023-01-09T16:02:41.590Z,49.35
2023-01-09T16:05:12.061Z,37.58
2023-01-09T16:07:44.344Z,42.88
2023-01-09T16:10:22.063Z,37.17
2023-01-09T16:12:48.547Z,40.65
2023-01-09T16:15:16.287Z,43.72
2023-01-09T16:18:04.166Z,42.20
2023-01-09T16:20:30.578Z,37.75
2023-01-09T16:22:57.830Z,35.47
2023-01-09T16:25:31.159Z,34.60
2023-01-09T16:28:08.969Z,33.80
2023-01-09T16:30:35.423Z,38.28
2023-01-09T16:33:03.244Z,41.63
2023-01-09T16:35:29.666Z,41.97
2023-01-09T16:37:56.873Z,38.80
2023-01-09T16:40:24.696Z,44.30
2023-01-09T16:43:02.516Z,35.47
2023-01-09T16:45:31.048Z,38.47
2023-01-09T16:47:58.901Z,42.55
2023-01-09T16:50:25.664Z,36.55
2023-01-09T16:52:53.089Z,38.08
2023-01-09T16:55:19.616Z,39.25
2023-01-09T16:57:46.921Z,221.10
2023-01-09T17:00:17.894Z,264.48
2023-01-09T17:02:44.593Z,799.80
2023-01-09T17:05:12.041Z,612.33
2023-01-09T17:07:38.510Z,390.58
2023-01-09T17:10:06.760Z,272.85
2023-01-09T17:12:33.260Z,523.20
2023-01-09T17:15:02.371Z,138.73
2023-01-09T17:17:28.787Z,193.07
2023-01-09T17:19:56.063Z,52.72
2023-01-09T17:22:23.250Z,39.67
2023-01-09T17:25:10.569Z,36.88
2023-01-09T17:27:56.074Z,36.38
2023-01-09T17:30:24.061Z,40.05
2023-01-09T17:32:50.553Z,34.17
2023-01-09T17:35:17.022Z,40.63
2023-01-09T17:37:44.911Z,28.52
2023-01-09T17:40:17.188Z,34.45
2023-01-09T17:42:45.379Z,31.77
2023-01-09T17:45:11.899Z,34.00
2023-01-09T17:47:39.125Z,41.15
2023-01-09T17:50:06.091Z,39.85
2023-01-09T17:52:33.141Z,29.77
2023-01-09T17:55:06.020Z,30.73
2023-01-09T17:57:32.750Z,33.17
2023-01-09T18:00:00.895Z,30.08
2023-01-09T18:02:27.444Z,28.65
2023-01-09T18:04:54.695Z,34.97
2023-01-09T18:07:21.195Z,29.60
2023-01-09T18:09:48.527Z,30.55
2023-01-09T18:12:15.024Z,25.90
2023-01-09T18:14:42.990Z,27.08
2023-01-09T18:17:12.044Z,23.58
2023-01-09T18:19:39.359Z,27.05
2023-01-09T18:22:06.630Z,24.35
2023-01-09T18:24:33.982Z,28.38
2023-01-09T18:27:00.383Z,23.85
2023-01-09T18:29:27.009Z,30.77
2023-01-09T18:31:54.988Z,27.67
2023-01-09T18:34:21.538Z,30.35
2023-01-09T18:36:48.949Z,29.58
2023-01-09T18:39:15.682Z,27.20
2023-01-09T18:41:43.363Z,26.65
2023-01-09T18:44:09.840Z,31.02
2023-01-09T18:46:38.881Z,25.63
2023-01-09T18:49:05.590Z,29.25
2023-01-09T18:51:34.331Z,28.58
2023-01-09T18:54:00.898Z,28.10
2023-01-09T18:56:28.294Z,29.77
2023-01-09T18:58:58.594Z,32.10
2023-01-09T19:01:26.729Z,27.33
2023-01-09T19:03:53.488Z,26.10
2023-01-09T19:06:20.854Z,32.10
2023-01-09T19:08:47.382Z,26.73
2023-01-09T19:11:15.191Z,33.90
2023-01-09T19:13:41.787Z,29.50
2023-01-09T19:16:09.192Z,30.27
2023-01-09T19:18:39.508Z,29.60
2023-01-09T19:21:16.699Z,26.90
2023-01-09T19:23:45.802Z,25.88
2023-01-09T19:26:20.520Z,24.05
2023-01-09T19:28:48.200Z,26.00
2023-01-09T19:31:15.048Z,27.50
2023-01-09T19:33:42.529Z,26.23
2023-01-09T19:36:09.371Z,25.27
2023-01-09T19:38:36.610Z,26.90
2023-01-09T19:41:09.112Z,25.02
2023-01-09T19:43:36.693Z,26.65
2023-01-09T19:46:06.562Z,24.40
2023-01-09T19:48:34.899Z,25.38
2023-01-09T19:51:03.221Z,22.67
2023-01-09T19:53:31.485Z,25.55
2023-01-09T19:56:06.319Z,25.23
2023-01-09T19:58:33.547Z,26.42
2023-01-09T20:01:13.517Z,24.35
2023-01-09T20:03:41.579Z,27.63
2023-01-09T20:06:13.916Z,26.05
2023-01-09T20:08:42.036Z,25.52
2023-01-09T20:11:08.821Z,29.83
2023-01-09T20:13:36.284Z,24.63
2023-01-09T20:16:03.689Z,27.17
2023-01-09T20:18:32.027Z,23.42
2023-01-09T20:20:58.490Z,24.92
2023-01-09T20:23:33.811Z,26.75
2023-01-09T20:26:00.530Z,28.33
2023-01-09T20:28:31.776Z,26.42
2023-01-09T20:30:58.225Z,27.55
2023-01-09T20:33:26.760Z,28.08
2023-01-09T20:35:53.250Z,21.10
2023-01-09T20:38:20.580Z,21.85
2023-01-09T20:40:47.228Z,22.73
2023-01-09T20:43:14.047Z,19.83
2023-01-09T20:45:41.435Z,22.65
2023-01-09T20:48:09.213Z,22.58
2023-01-09T20:50:36.511Z,25.38
2023-01-09T20:53:03.765Z,26.02
2023-01-09T20:55:32.759Z,27.90
2023-01-09T20:57:59.396Z,35.22
2023-01-09T21:00:32.686Z,25.45
2023-01-09T21:02:59.579Z,25.30
2023-01-09T21:05:32.943Z,20.92
2023-01-09T21:08:03.730Z,21.05
2023-01-09T21:10:30.919Z,26.02
2023-01-09T21:12:57.359Z,19.50
2023-01-09T21:15:25.828Z,26.08
2023-01-09T21:17:52.670Z,23.83
2023-01-09T21:20:19.148Z,19.38
2023-01-09T21:22:46.705Z,18.83
2023-01-09T21:25:13.223Z,19.40
2023-01-09T21:27:42.960Z,17.38
2023-01-09T21:30:10.917Z,17.65
2023-01-09T21:32:38.456Z,16.95
2023-01-09T21:35:05.948Z,19.33
2023-01-09T21:37:33.824Z,15.52
2023-01-09T21:40:01.699Z,20.52
2023-01-09T21:42:46.458Z,19.20
2023-01-09T21:45:33.504Z,16.35
2023-01-09T21:48:02.366Z,18.10
2023-01-09T21:50:30.140Z,18.27
2023-01-09T21:52:56.549Z,17.48
2023-01-09T21:55:22.920Z,20.55
2023-01-09T21:57:50.197Z,16.70
2023-01-09T22:00:16.876Z,19.17
2023-01-09T22:02:45.367Z,19.05
2023-01-09T22:05:11.835Z,17.27
2023-01-09T22:07:39.081Z,17.30
2023-01-09T22:10:05.949Z,18.52
2023-01-09T22:12:33.176Z,17.92
2023-01-09T22:14:59.624Z,18.90
2023-01-09T22:17:26.101Z,17.55
2023-01-09T22:19:53.252Z,18.00
2023-01-09T22:22:23.517Z,19.77
2023-01-09T22:24:51.038Z,17.33
2023-01-09T22:27:17.535Z,19.15
2023-01-09T22:29:45.168Z,19.30
2023-01-09T22:32:11.588Z,19.73
2023-01-09T22:34:37.997Z,21.38
2023-01-09T22:37:05.277Z,20.15
2023-01-09T22:39:31.745Z,21.67
2023-01-09T22:42:01.495Z,20.27
2023-01-09T22:44:28.029Z,18.38
2023-01-09T22:46:55.221Z,21.98
2023-01-09T22:49:21.687Z,19.70
2023-01-09T22:51:48.817Z,20.27
2023-01-09T22:54:15.307Z,25.08
2023-01-09T22:56:42.477Z,18.85
2023-01-09T22:59:08.940Z,20.45
2023-01-09T23:01:35.439Z,21.50
2023-01-09T23:04:04.349Z,23.02
2023-01-09T23:06:30.783Z,18.42
2023-01-09T23:08:57.911Z,16.63
2023-01-09T23:11:45.587Z,21.00
2023-01-09T23:14:12.822Z,20.33
2023-01-09T23:16:39.788Z,22.35
2023-01-09T23:19:07.700Z,22.45
2023-01-09T23:21:35.538Z,19.92
2023-01-09T23:24:02.543Z,19.05
2023-01-09T23:26:28.982Z,24.00
2023-01-09T23:28:55.453Z,20.45
2023-01-09T23:31:21.925Z,19.80
2023-01-09T23:33:48.374Z,20.20
2023-01-09T23:36:15.351Z,19.15
2023-01-09T23:38:41.908Z,20.38
2023-01-09T23:41:08.627Z,18.63
2023-01-09T23:43:35.136Z,16.48
2023-01-09T23:46:01.772Z,19.10
2023-01-09T23:48:28.284Z,18.77
2023-01-09T23:50:55.028Z,21.88
2023-01-09T23:53:22.255Z,16.23
2023-01-09T23:55:49.377Z,16.27
2023-01-09T23:58:15.821Z,17.90
